Brandon Municipal Airport
CYBR : now visible

Airfield :











YOU CAN JOIN US ON...

 
LOGIN :

Register | Disclaimer

   EN    FR    IT 

 









Legend :    VFR   Marginal VFR   IFR   Intensive IFR   Very Intensive IFR
Visi :
Ceiling :
>= 8 km
>= 3000ft
5 to 8 km
1000 to 3000 ft
1500m to 5 km
500 to 1000 ft
800 to 1500m
200 to 500 ft
< 800m
< 200 ft
Symbols :   Thunderstorms  Fog  Heavy snow  Heavy precipitations  Wind > 20 kt







- Airport Elevation : 1343 ft
- IATA code : YBR


CYBR - Brandon Municipal

CURRENT METAR :
  • 202014Z VRB04KT 2SM SHRA BR OVC003 19/18 A2975 RMK ST8 CVCTV CLD EMBD PRESRR SLP082 DENSITY ALT 2300FT

EXPIRED METARs :
  • 202004Z 12003KT 070V160 8SM OVC003 19/18 A2974 RMK ST8 SLP079 DENSITY ALT 2300FT
  • 201952Z 11006KT 8SM TS OVC003 19/18 A2974 RMK ST8 CB EMBD SLP078 DENSITY ALT 2400FT
  • 201928Z 14005KT 090V160 8SM -TSRA BKN006 OVC025CB 19/18 A2975 RMK SF6CB2 VIS N-E 3 SLP080 DENSITY ALT 2300FT
  • 201913Z 14005KT 080V140 2SM TSRA BR OVC006 18/18 A2975 RMK ST8 CB EMBD VIS SW-N 8 SLP081 DENSITY ALT 2300FT
  • 201900Z CCA 10005KT 12SM -TSRA OVC006 18/18 A2974 RMK ST8 CB EMBD PRESFR SLP077 DENSITY ALT 2300FT
  • 201820Z 15005KT 12SM -TSRA OVC008 19/18 A2978 RMK ST8 CB EMBD SLP091 DENSITY ALT 2300FT
  • 201800Z 13006KT 15SM OVC007 19/18 A2975 RMK ST8 SLP082 DENSITY ALT 2300FT

TAF AMD TAF CYBR
Valid from the 20 at 20:00 until the 21 at 06:00 UTC


202009Z 2020/2106 12008KT P6SM BKN008 OVC030
TEMPO 2020/2021 VRB15G25KT 2SM TSRA BR OVC003CB
FM202100 25015G25KT P6SM BKN012 BKN040
TEMPO 2021/2101 VRB20G35KT 2SM TSRA OVC006CB
PROB30 2021/2101 VRB30G45KT 1SM +TSRAGR OVC006CB
FM210100 25015G25KT P6SM -SHRA SCT012 OVC040
TEMPO 2101/2106 2SM -SHRA BR SCT006 OVC012
PROB30 2101/2104 1SM +TSRA BR OVC006CB RMK NXT FCST BY 210000Z
No reported NOTAMs for that airfield.



MET'MAP, your aeronautical weather chart ! - Copyright ORBIFLY December 2007 - Disclaimer

ORBIFLY MET'MAP TEAM :

Programming & Development : Alexandra Zaïnal
Concept & Development : Baudouin d'Aumeries
Co-Development & Prog : Marc-Olivier Méhu
Technical & hardware support : Manuel Goepfert

Contact : metmap@orbifly.com




SOURCES & CREDITS :

   NOAA       Earth
Advisory